Time;durP1;ratioP1;P1;durP2;ratioP2;P2;SDS_P1;SDS_P2;PMS_P1;PMS_P2;Temp;Humidity;BMP_temperature;BMP_pressure;BME280_temperature;BME280_humidity;BME280_pressure;Samples;Min_cycle;Max_cycle;Signal;HPM_P1;HPM_P2
2022/11/21 00:00:27;;;;;;;;;;;23.90;56.10;;;;;;4975776;28;19915;-75
2022/11/21 00:02:57;;;;;;;;;;;23.80;56.80;;;;;;4937000;28;19922;-81
2022/11/21 00:05:24;;;;;;;;;;;23.60;55.90;;;;;;4938558;28;19915;-74
2022/11/21 00:07:50;;;;;;;;;;;23.40;55.80;;;;;;4938592;28;20751;-74
2022/11/21 00:10:17;;;;;;;;;;;23.40;56.30;;;;;;4939821;28;20268;-75
2022/11/21 00:12:43;;;;;;;;;;;23.40;56.20;;;;;;4939088;28;19917;-73
2022/11/21 00:15:10;;;;;;;;;;;23.50;56.60;;;;;;4940164;28;20359;-72
2022/11/21 00:17:38;;;;;;;;;;;23.50;56.50;;;;;;4939030;28;20417;-73
2022/11/21 00:20:05;;;;;;;;;;;23.50;55.90;;;;;;4939411;28;19922;-73
2022/11/21 00:22:31;;;;;;;;;;;23.60;56.20;;;;;;4939839;28;19953;-76
2022/11/21 00:24:58;;;;;;;;;;;23.60;56.20;;;;;;4938908;28;20325;-74
2022/11/21 00:27:25;;;;;;;;;;;23.80;55.80;;;;;;4940583;28;19910;-74
2022/11/21 00:29:51;;;;;;;;;;;23.90;55.60;;;;;;4937867;28;19922;-76
2022/11/21 00:32:18;;;;;;;;;;;23.90;55.30;;;;;;4940001;28;19941;-72
2022/11/21 00:34:45;;;;;;;;;;;24.00;54.70;;;;;;4937560;28;19914;-75
2022/11/21 00:37:11;;;;;;;;;;;24.00;54.80;;;;;;4971709;28;20355;-76
2022/11/21 00:39:38;;;;;;;;;;;24.00;54.40;;;;;;4938610;28;19941;-73
2022/11/21 00:42:04;;;;;;;;;;;24.20;54.40;;;;;;5004383;28;19929;-76
2022/11/21 00:44:31;;;;;;;;;;;24.20;54.20;;;;;;4940502;28;19917;-74
2022/11/21 00:46:58;;;;;;;;;;;24.10;54.00;;;;;;4937622;28;20630;-75
2022/11/21 00:49:24;;;;;;;;;;;24.20;54.50;;;;;;4939836;28;19922;-75
2022/11/21 00:51:51;;;;;;;;;;;24.20;53.20;;;;;;4937747;28;19929;-74
2022/11/21 00:54:17;;;;;;;;;;;24.20;53.50;;;;;;4939571;28;19915;-74
2022/11/21 00:56:44;;;;;;;;;;;24.40;53.80;;;;;;4938558;28;19914;-70
2022/11/21 00:59:11;;;;;;;;;;;24.60;54.30;;;;;;4939217;28;19914;-75
2022/11/21 01:01:37;;;;;;;;;;;24.60;53.70;;;;;;4940386;28;19954;-74
2022/11/21 01:04:04;;;;;;;;;;;24.60;53.60;;;;;;4937489;28;19911;-73
2022/11/21 01:06:31;;;;;;;;;;;24.60;53.20;;;;;;4939493;28;19911;-75
2022/11/21 01:08:57;;;;;;;;;;;24.40;53.70;;;;;;4936638;28;20367;-74
2022/11/21 01:11:24;;;;;;;;;;;24.50;53.90;;;;;;4939142;28;19918;-74
2022/11/21 01:13:52;;;;;;;;;;;24.80;53.40;;;;;;4937946;28;19911;-72
2022/11/21 01:16:21;;;;;;;;;;;24.90;53.90;;;;;;4939006;28;19992;-73
2022/11/21 01:18:48;;;;;;;;;;;24.90;53.10;;;;;;4937590;28;20008;-75
2022/11/21 01:21:16;;;;;;;;;;;24.90;53.40;;;;;;4928241;28;20688;-75
2022/11/21 01:23:43;;;;;;;;;;;25.00;54.40;;;;;;4947941;28;19922;-72
2022/11/21 01:26:14;;;;;;;;;;;24.90;53.10;;;;;;4937569;28;19910;-73
2022/11/21 01:28:41;;;;;;;;;;;24.70;53.20;;;;;;4938252;28;19925;-73
2022/11/21 01:31:08;;;;;;;;;;;24.40;54.80;;;;;;4936695;28;19910;-74
2022/11/21 01:33:35;;;;;;;;;;;24.50;54.20;;;;;;4938742;28;19910;-74
2022/11/21 01:36:06;;;;;;;;;;;24.30;55.00;;;;;;4936622;28;19941;-76
2022/11/21 01:38:33;;;;;;;;;;;24.50;54.50;;;;;;4939233;28;20013;-73
2022/11/21 01:41:00;;;;;;;;;;;24.90;54.30;;;;;;4937351;28;19922;-74
2022/11/21 01:43:26;;;;;;;;;;;25.10;53.90;;;;;;4937271;28;20462;-74
2022/11/21 01:45:58;;;;;;;;;;;25.30;54.30;;;;;;4937114;28;19922;-72
2022/11/21 01:48:30;;;;;;;;;;;25.20;53.80;;;;;;4937786;28;19976;-73
2022/11/21 01:51:00;;;;;;;;;;;25.10;53.90;;;;;;4937649;28;19915;-76
2022/11/21 01:53:26;;;;;;;;;;;25.00;53.40;;;;;;4936493;28;20356;-73
2022/11/21 01:55:53;;;;;;;;;;;24.80;55.90;;;;;;4935867;28;20389;-73
2022/11/21 01:58:20;;;;;;;;;;;24.80;55.30;;;;;;4938227;28;20328;-73
2022/11/21 02:00:47;;;;;;;;;;;24.70;55.10;;;;;;4938958;28;19911;-74
2022/11/21 02:03:16;;;;;;;;;;;24.70;55.60;;;;;;4937510;28;19921;-73
2022/11/21 02:05:43;;;;;;;;;;;24.60;55.40;;;;;;4938289;28;19930;-72
2022/11/21 02:08:19;;;;;;;;;;;24.60;55.60;;;;;;4936509;28;20417;-72
2022/11/21 02:11:04;;;;;;;;;;;24.60;55.10;;;;;;4937948;28;19925;-72
2022/11/21 02:13:30;;;;;;;;;;;24.40;54.50;;;;;;4926995;28;19954;-72
2022/11/21 02:15:57;;;;;;;;;;;24.50;55.00;;;;;;4937255;28;19993;-72
2022/11/21 02:18:25;;;;;;;;;;;24.50;54.80;;;;;;4938414;28;20009;-74
2022/11/21 02:20:55;;;;;;;;;;;24.50;55.70;;;;;;4938901;28;19958;-74
2022/11/21 02:23:27;;;;;;;;;;;24.50;55.50;;;;;;4936154;28;19976;-75
2022/11/21 02:25:54;;;;;;;;;;;24.70;56.00;;;;;;4939021;28;19914;-72
2022/11/21 02:28:22;;;;;;;;;;;24.80;54.10;;;;;;4937320;28;19914;-72
2022/11/21 02:30:49;;;;;;;;;;;24.80;54.50;;;;;;4938274;28;19918;-73
2022/11/21 02:33:15;;;;;;;;;;;24.80;54.80;;;;;;4936585;28;19914;-74
2022/11/21 02:35:42;;;;;;;;;;;24.90;54.80;;;;;;4937709;28;19918;-69
2022/11/21 02:38:22;;;;;;;;;;;25.00;53.00;;;;;;4938355;28;19910;-74
2022/11/21 02:41:01;;;;;;;;;;;25.10;53.00;;;;;;4938391;28;19954;-76
2022/11/21 02:43:30;;;;;;;;;;;25.20;53.20;;;;;;4936183;28;19911;-73
2022/11/21 02:45:57;;;;;;;;;;;25.40;51.70;;;;;;4939003;28;20378;-75
2022/11/21 02:48:24;;;;;;;;;;;25.70;52.40;;;;;;4936418;28;19957;-76
2022/11/21 02:50:51;;;;;;;;;;;26.10;51.30;;;;;;4937746;28;20088;-76
2022/11/21 02:53:18;;;;;;;;;;;26.70;51.50;;;;;;4936589;28;20326;-75
2022/11/21 02:55:45;;;;;;;;;;;27.30;50.30;;;;;;4937984;28;20389;-73
2022/11/21 02:58:11;;;;;;;;;;;27.80;49.40;;;;;;4938157;28;19929;-75
2022/11/21 03:00:39;;;;;;;;;;;28.00;49.20;;;;;;4936153;28;19921;-75
2022/11/21 03:03:06;;;;;;;;;;;28.60;48.90;;;;;;4937544;28;20013;-74
2022/11/21 03:05:32;;;;;;;;;;;29.10;47.90;;;;;;4938070;28;20561;-74
2022/11/21 03:07:59;;;;;;;;;;;29.20;48.10;;;;;;4941649;28;19914;-74
2022/11/21 03:10:26;;;;;;;;;;;29.00;46.90;;;;;;4938683;28;19945;-75
2022/11/21 03:12:59;;;;;;;;;;;29.30;47.40;;;;;;4940741;28;19918;-74
2022/11/21 03:15:27;;;;;;;;;;;29.30;46.90;;;;;;4939876;28;19917;-73
2022/11/21 03:17:54;;;;;;;;;;;29.50;46.90;;;;;;4940515;28;19915;-73
2022/11/21 03:20:21;;;;;;;;;;;30.50;45.70;;;;;;4939067;28;19910;-76
2022/11/21 03:22:48;;;;;;;;;;;30.10;45.90;;;;;;4936616;28;19929;-74
2022/11/21 03:25:15;;;;;;;;;;;30.20;45.90;;;;;;4941317;28;19961;-78
2022/11/21 03:27:42;;;;;;;;;;;30.00;46.90;;;;;;4921710;29;20748;-73
2022/11/21 03:30:09;;;;;;;;;;;30.00;46.40;;;;;;4941013;28;19922;-75
2022/11/21 03:32:35;;;;;;;;;;;29.80;45.60;;;;;;4939536;28;20367;-75
2022/11/21 03:35:02;;;;;;;;;;;30.10;46.00;;;;;;4940445;28;19915;-72
2022/11/21 03:37:29;;;;;;;;;;;30.80;45.60;;;;;;4939573;28;19972;-75
2022/11/21 03:39:55;;;;;;;;;;;30.60;46.00;;;;;;4939770;28;20376;-77
2022/11/21 03:42:22;;;;;;;;;;;31.10;45.10;;;;;;4940704;28;19914;-77
2022/11/21 03:44:48;;;;;;;;;;;31.80;45.20;;;;;;4938170;28;19965;-73
2022/11/21 03:47:15;;;;;;;;;;;32.60;45.40;;;;;;4941014;28;19914;-75
2022/11/21 03:49:42;;;;;;;;;;;33.30;45.60;;;;;;4938217;28;20651;-74
2022/11/21 03:52:08;;;;;;;;;;;33.50;44.80;;;;;;4941760;28;19923;-73
2022/11/21 03:54:35;;;;;;;;;;;33.20;45.50;;;;;;4939075;28;20291;-75
2022/11/21 03:57:02;;;;;;;;;;;32.60;44.70;;;;;;4940257;28;19910;-75
2022/11/21 03:59:28;;;;;;;;;;;31.60;46.00;;;;;;4938833;28;19921;-75
2022/11/21 04:01:55;;;;;;;;;;;30.90;46.90;;;;;;4940291;28;19948;-77
2022/11/21 04:04:21;;;;;;;;;;;30.90;47.80;;;;;;4940994;28;19917;-77
2022/11/21 04:06:48;;;;;;;;;;;30.90;46.50;;;;;;4937923;28;19910;-76
2022/11/21 04:09:15;;;;;;;;;;;31.20;47.80;;;;;;4940787;28;20256;-77
2022/11/21 04:11:41;;;;;;;;;;;31.60;46.10;;;;;;4925362;28;19954;-75
2022/11/21 04:14:08;;;;;;;;;;;31.80;45.50;;;;;;4970595;28;19983;-74
2022/11/21 04:16:34;;;;;;;;;;;31.70;45.60;;;;;;4928906;28;19922;-73
2022/11/21 04:19:01;;;;;;;;;;;30.70;46.10;;;;;;4938724;28;20836;-75
2022/11/21 04:21:28;;;;;;;;;;;30.50;47.10;;;;;;4938871;28;19951;-75
2022/11/21 04:23:54;;;;;;;;;;;31.10;46.40;;;;;;4938424;28;19915;-75
2022/11/21 04:26:21;;;;;;;;;;;30.60;46.70;;;;;;4935289;28;19915;-73
2022/11/21 04:28:48;;;;;;;;;;;31.20;45.60;;;;;;4937371;28;19940;-80
2022/11/21 04:31:14;;;;;;;;;;;31.20;45.60;;;;;;4939959;28;19911;-74
2022/11/21 04:33:41;;;;;;;;;;;31.20;44.90;;;;;;4929708;28;19926;-72
2022/11/21 04:36:08;;;;;;;;;;;30.60;45.80;;;;;;4939131;28;19910;-73
2022/11/21 04:38:35;;;;;;;;;;;30.70;46.40;;;;;;4939700;28;19910;-72
2022/11/21 04:41:02;;;;;;;;;;;31.40;44.80;;;;;;4973757;28;19915;-72
2022/11/21 04:43:28;;;;;;;;;;;31.70;45.40;;;;;;4939337;28;19917;-73
2022/11/21 04:45:55;;;;;;;;;;;31.80;44.20;;;;;;4937964;28;19946;-73
2022/11/21 04:48:25;;;;;;;;;;;31.10;44.80;;;;;;4938242;28;20279;-73
2022/11/21 04:50:52;;;;;;;;;;;30.90;44.60;;;;;;4937091;28;19956;-72
2022/11/21 04:53:19;;;;;;;;;;;30.90;45.50;;;;;;4938410;28;20017;-71
2022/11/21 04:55:45;;;;;;;;;;;30.90;44.20;;;;;;4996163;28;19987;-73
2022/11/21 04:58:13;;;;;;;;;;;30.30;44.70;;;;;;4937567;28;19914;-74
2022/11/21 05:00:39;;;;;;;;;;;30.30;45.30;;;;;;4940386;28;19933;-72
2022/11/21 05:03:06;;;;;;;;;;;30.90;44.90;;;;;;4958252;28;19964;-74
2022/11/21 05:05:33;;;;;;;;;;;31.30;44.10;;;;;;4947808;28;20450;-75
2022/11/21 05:08:00;;;;;;;;;;;30.90;44.40;;;;;;4937739;28;19914;-74
2022/11/21 05:10:27;;;;;;;;;;;28.90;46.10;;;;;;4937435;28;19983;-73
2022/11/21 05:15:45;;;;;;;;;;;27.00;48.40;;;;;;4937358;28;19964;-76
2022/11/21 05:18:11;;;;;;;;;;;28.30;47.50;;;;;;4937877;28;19950;-74
2022/11/21 05:20:38;;;;;;;;;;;29.70;44.00;;;;;;4938001;28;20368;-72
2022/11/21 05:23:05;;;;;;;;;;;30.40;43.60;;;;;;4939177;28;19941;-73
2022/11/21 05:25:31;;;;;;;;;;;30.30;42.20;;;;;;4937758;28;20583;-75
2022/11/21 05:27:58;;;;;;;;;;;29.30;42.60;;;;;;4935658;28;19911;-72
2022/11/21 05:30:25;;;;;;;;;;;27.90;44.80;;;;;;4937615;28;19926;-72
2022/11/21 05:32:51;;;;;;;;;;;27.30;45.10;;;;;;4937116;28;19910;-76
2022/11/21 05:35:18;;;;;;;;;;;27.60;45.70;;;;;;4937912;28;20355;-77
2022/11/21 05:37:45;;;;;;;;;;;27.60;45.40;;;;;;4936225;28;20382;-74
2022/11/21 05:40:11;;;;;;;;;;;27.80;46.00;;;;;;4938150;28;20355;-75
2022/11/21 05:45:23;;;;;;;;;;;26.60;46.80;;;;;;4937702;28;19917;-76
2022/11/21 05:47:50;;;;;;;;;;;26.40;47.70;;;;;;4936177;28;19910;-73
2022/11/21 05:50:16;;;;;;;;;;;26.90;47.60;;;;;;4937394;28;19922;-74
2022/11/21 05:52:43;;;;;;;;;;;27.70;46.10;;;;;;4938638;28;19936;-73
2022/11/21 05:55:10;;;;;;;;;;;27.80;45.30;;;;;;4937247;28;19914;-72
2022/11/21 05:57:36;;;;;;;;;;;26.80;45.80;;;;;;4937228;28;19922;-73
2022/11/21 06:00:03;;;;;;;;;;;26.30;47.00;;;;;;4944845;28;19918;-77
2022/11/21 06:05:14;;;;;;;;;;;24.90;47.70;;;;;;4951045;28;19918;-76
2022/11/21 06:07:41;;;;;;;;;;;24.50;47.80;;;;;;4937579;28;19915;-74
2022/11/21 06:10:08;;;;;;;;;;;24.20;48.60;;;;;;4936190;28;20279;-72
2022/11/21 06:12:34;;;;;;;;;;;24.10;48.50;;;;;;4944551;28;19969;-74
2022/11/21 06:15:01;;;;;;;;;;;24.20;49.20;;;;;;4955738;28;19942;-74
2022/11/21 06:17:27;;;;;;;;;;;24.00;48.20;;;;;;4940727;28;20013;-73
2022/11/21 06:19:54;;;;;;;;;;;24.00;48.40;;;;;;4936887;28;19915;-76
2022/11/21 06:22:21;;;;;;;;;;;24.00;48.10;;;;;;4936915;28;19964;-76
2022/11/21 06:24:48;;;;;;;;;;;24.00;49.00;;;;;;4982541;28;19968;-75
2022/11/21 06:27:14;;;;;;;;;;;24.20;47.50;;;;;;4964778;28;19967;-76
2022/11/21 06:29:41;;;;;;;;;;;24.00;48.30;;;;;;4937438;28;20419;-77
2022/11/21 06:32:07;;;;;;;;;;;23.90;47.80;;;;;;4936292;28;20361;-77
2022/11/21 06:34:34;;;;;;;;;;;23.60;48.50;;;;;;4937920;28;20287;-73
2022/11/21 06:37:01;;;;;;;;;;;23.10;49.30;;;;;;4936644;28;19921;-74
2022/11/21 06:39:27;;;;;;;;;;;23.10;49.10;;;;;;4935549;28;19922;-75
2022/11/21 06:41:54;;;;;;;;;;;23.10;49.50;;;;;;4935369;28;19968;-74
2022/11/21 06:44:20;;;;;;;;;;;23.00;48.80;;;;;;4937083;28;19919;-76
2022/11/21 06:46:47;;;;;;;;;;;23.00;49.50;;;;;;4928664;28;20283;-76
2022/11/21 06:49:14;;;;;;;;;;;23.00;50.00;;;;;;5027764;28;19922;-75
2022/11/21 06:51:40;;;;;;;;;;;23.20;49.30;;;;;;4937214;28;19918;-76
2022/11/21 06:54:07;;;;;;;;;;;23.20;49.20;;;;;;4936470;28;19910;-75
2022/11/21 06:56:34;;;;;;;;;;;23.00;49.20;;;;;;4936539;28;19915;-74
2022/11/21 06:59:00;;;;;;;;;;;23.00;49.30;;;;;;4935401;28;19949;-73
2022/11/21 07:01:27;;;;;;;;;;;22.70;49.40;;;;;;4935601;28;19916;-73
2022/11/21 07:03:54;;;;;;;;;;;22.60;49.20;;;;;;4933676;28;19911;-73
2022/11/21 07:06:21;;;;;;;;;;;22.40;49.10;;;;;;4936342;28;19910;-74
2022/11/21 07:08:47;;;;;;;;;;;22.20;50.00;;;;;;4936036;28;19926;-71
2022/11/21 07:11:14;;;;;;;;;;;22.30;50.60;;;;;;4934564;28;19923;-73
2022/11/21 07:13:42;;;;;;;;;;;22.40;50.00;;;;;;4935764;28;20029;-74
2022/11/21 07:16:13;;;;;;;;;;;22.30;50.10;;;;;;4936534;28;19963;-73
2022/11/21 07:18:40;;;;;;;;;;;22.30;49.80;;;;;;4936204;28;19961;-74
2022/11/21 07:21:10;;;;;;;;;;;22.00;49.60;;;;;;4933392;28;20367;-74
2022/11/21 07:23:36;;;;;;;;;;;22.10;50.40;;;;;;4981189;28;19929;-71
2022/11/21 07:26:04;;;;;;;;;;;22.10;50.10;;;;;;4987106;28;19979;-73
2022/11/21 07:28:32;;;;;;;;;;;22.10;50.60;;;;;;4935725;28;19957;-75
2022/11/21 07:30:59;;;;;;;;;;;21.80;51.50;;;;;;4936528;28;20663;-75
2022/11/21 07:33:26;;;;;;;;;;;21.50;51.60;;;;;;5018464;28;19915;-73
2022/11/21 07:35:56;;;;;;;;;;;21.50;51.40;;;;;;4937032;28;20009;-74
2022/11/21 07:38:26;;;;;;;;;;;21.20;49.70;;;;;;4936143;28;19987;-74
2022/11/21 07:40:55;;;;;;;;;;;21.10;50.00;;;;;;4936651;28;19962;-75
2022/11/21 07:43:23;;;;;;;;;;;21.10;50.70;;;;;;4935933;28;19911;-73
2022/11/21 07:45:50;;;;;;;;;;;21.00;51.30;;;;;;5018555;28;19915;-73
2022/11/21 07:48:17;;;;;;;;;;;20.90;51.70;;;;;;4934905;28;19914;-72
2022/11/21 07:50:43;;;;;;;;;;;20.80;51.90;;;;;;4937372;28;19910;-71
2022/11/21 07:53:10;;;;;;;;;;;20.50;52.10;;;;;;4939682;28;19949;-73
2022/11/21 07:55:37;;;;;;;;;;;20.60;52.40;;;;;;4939329;28;19972;-73
2022/11/21 07:58:05;;;;;;;;;;;20.50;52.40;;;;;;4939564;28;19968;-75
2022/11/21 08:00:32;;;;;;;;;;;20.40;52.30;;;;;;4939380;28;19960;-75
2022/11/21 08:02:59;;;;;;;;;;;20.30;52.60;;;;;;4940148;28;19911;-76
2022/11/21 08:05:26;;;;;;;;;;;20.30;52.60;;;;;;4938541;28;20425;-72
2022/11/21 08:07:53;;;;;;;;;;;20.20;52.30;;;;;;4939395;28;19957;-71
2022/11/21 08:10:19;;;;;;;;;;;20.10;52.30;;;;;;5022088;28;19925;-72
2022/11/21 08:12:46;;;;;;;;;;;20.10;51.90;;;;;;4940034;28;19918;-72
2022/11/21 08:15:13;;;;;;;;;;;20.10;52.00;;;;;;4955114;28;19914;-72
2022/11/21 08:17:39;;;;;;;;;;;20.00;51.90;;;;;;4949634;28;19914;-72
2022/11/21 08:20:07;;;;;;;;;;;19.90;52.00;;;;;;4939920;28;20343;-73
2022/11/21 08:22:40;;;;;;;;;;;19.80;52.40;;;;;;4939136;28;19956;-69
2022/11/21 08:25:08;;;;;;;;;;;19.90;52.20;;;;;;4939774;28;19911;-74
2022/11/21 08:27:35;;;;;;;;;;;19.80;52.20;;;;;;4965416;28;19925;-71
2022/11/21 08:30:03;;;;;;;;;;;19.80;52.40;;;;;;4939219;28;19970;-74
2022/11/21 08:32:30;;;;;;;;;;;19.70;52.40;;;;;;4938338;28;19969;-72
2022/11/21 08:34:57;;;;;;;;;;;19.60;52.60;;;;;;4938071;28;19910;-73
2022/11/21 08:37:23;;;;;;;;;;;19.50;53.10;;;;;;4938382;28;19926;-74
2022/11/21 08:39:50;;;;;;;;;;;19.50;53.40;;;;;;4939402;28;19934;-72
2022/11/21 08:42:16;;;;;;;;;;;19.50;54.10;;;;;;4938262;28;19918;-73
2022/11/21 08:44:43;;;;;;;;;;;19.40;54.00;;;;;;4938714;28;20025;-72
2022/11/21 08:47:10;;;;;;;;;;;19.30;54.50;;;;;;4939222;28;20461;-73
2022/11/21 08:49:36;;;;;;;;;;;19.10;54.70;;;;;;4939124;28;19918;-71
2022/11/21 08:52:04;;;;;;;;;;;19.00;55.20;;;;;;4938418;28;19930;-74
2022/11/21 08:54:31;;;;;;;;;;;18.90;55.20;;;;;;4938342;28;19921;-72
2022/11/21 08:56:57;;;;;;;;;;;18.80;55.80;;;;;;4938881;28;19960;-73
2022/11/21 08:59:24;;;;;;;;;;;18.80;56.20;;;;;;4938302;28;20311;-70
2022/11/21 09:01:51;;;;;;;;;;;18.70;56.50;;;;;;4939330;28;19933;-72
2022/11/21 09:04:18;;;;;;;;;;;18.70;56.60;;;;;;4937710;28;20632;-71
2022/11/21 09:06:45;;;;;;;;;;;18.60;56.80;;;;;;4938928;29;19937;-73
2022/11/21 09:09:11;;;;;;;;;;;18.60;57.10;;;;;;4938744;28;19922;-75
2022/11/21 09:11:38;;;;;;;;;;;18.50;57.00;;;;;;4937694;28;19921;-72
2022/11/21 09:19:34;;;;;;;;;;;18.30;57.40;;;;;;4934279;28;19985;-71
2022/11/21 09:22:01;;;;;;;;;;;18.20;57.60;;;;;;4939291;28;19914;-72
2022/11/21 09:24:27;;;;;;;;;;;18.30;57.60;;;;;;4937519;28;19997;-73
2022/11/21 09:26:54;;;;;;;;;;;18.20;57.60;;;;;;4938936;28;19953;-73
2022/11/21 09:29:21;;;;;;;;;;;18.10;57.40;;;;;;4938121;28;19925;-72
2022/11/21 09:31:47;;;;;;;;;;;18.10;57.50;;;;;;4938734;28;19915;-72
2022/11/21 09:34:14;;;;;;;;;;;18.20;57.70;;;;;;4939426;28;19910;-71
2022/11/21 09:36:41;;;;;;;;;;;18.00;57.50;;;;;;4936071;28;19961;-70
2022/11/21 09:39:07;;;;;;;;;;;18.00;57.80;;;;;;4937986;28;20019;-72
2022/11/21 09:41:52;;;;;;;;;;;17.90;57.60;;;;;;4937531;28;19921;-74
2022/11/21 09:44:37;;;;;;;;;;;17.90;57.40;;;;;;4937255;28;20358;-69
2022/11/21 09:47:15;;;;;;;;;;;17.90;58.00;;;;;;4938768;28;19915;-71
2022/11/21 09:49:46;;;;;;;;;;;17.80;57.80;;;;;;4928138;28;20013;-73
2022/11/21 09:52:14;;;;;;;;;;;17.80;58.00;;;;;;4937595;28;19984;-72
2022/11/21 09:54:52;;;;;;;;;;;17.70;57.90;;;;;;4935429;28;19918;-71
2022/11/21 09:57:22;;;;;;;;;;;17.70;58.40;;;;;;4937514;28;20352;-72
2022/11/21 09:59:49;;;;;;;;;;;17.70;58.10;;;;;;4937812;28;19968;-72
2022/11/21 10:02:17;;;;;;;;;;;17.60;58.20;;;;;;4937092;28;19911;-70
2022/11/21 10:04:44;;;;;;;;;;;17.60;57.80;;;;;;4948726;28;20278;-71
2022/11/21 10:07:15;;;;;;;;;;;17.50;57.70;;;;;;4951607;28;20363;-75
2022/11/21 10:10:00;;;;;;;;;;;17.50;58.00;;;;;;4936981;28;19918;-75
2022/11/21 10:12:39;;;;;;;;;;;17.50;57.80;;;;;;4938461;28;20009;-74
2022/11/21 10:15:21;;;;;;;;;;;17.40;58.00;;;;;;4938329;28;20406;-74
2022/11/21 10:17:48;;;;;;;;;;;17.40;58.20;;;;;;4937501;28;19911;-70
2022/11/21 10:20:26;;;;;;;;;;;17.40;57.70;;;;;;4937949;28;19936;-71
2022/11/21 10:23:25;;;;;;;;;;;17.40;58.40;;;;;;4937551;28;19949;-70
2022/11/21 10:25:56;;;;;;;;;;;17.40;58.10;;;;;;4962957;28;19910;-73
2022/11/21 10:28:33;;;;;;;;;;;17.30;58.40;;;;;;4938939;28;19972;-70
2022/11/21 10:31:00;;;;;;;;;;;17.30;58.20;;;;;;4937410;28;20499;-74
2022/11/21 10:33:35;;;;;;;;;;;17.30;58.20;;;;;;4939216;28;19941;-72
2022/11/21 10:36:20;;;;;;;;;;;17.30;58.60;;;;;;4920121;28;20679;-73
2022/11/21 10:38:49;;;;;;;;;;;17.30;58.40;;;;;;4936418;28;20127;-70
2022/11/21 10:41:18;;;;;;;;;;;17.20;59.10;;;;;;4936828;28;19917;-74
2022/11/21 10:46:30;;;;;;;;;;;17.10;59.20;;;;;;4938246;28;19938;-74
2022/11/21 10:48:58;;;;;;;;;;;17.00;59.60;;;;;;4979751;28;20340;-71
2022/11/21 10:51:44;;;;;;;;;;;17.00;60.30;;;;;;4938519;28;19918;-71
2022/11/21 10:57:15;;;;;;;;;;;17.00;60.20;;;;;;4936350;28;19922;-69
2022/11/21 10:59:56;;;;;;;;;;;16.90;60.20;;;;;;4937458;28;19914;-69
2022/11/21 11:02:23;;;;;;;;;;;16.90;60.40;;;;;;4938276;28;19975;-70
2022/11/21 11:05:09;;;;;;;;;;;16.90;60.60;;;;;;4935701;28;20001;-71
2022/11/21 11:07:36;;;;;;;;;;;16.90;60.20;;;;;;4937494;28;19921;-70
2022/11/21 11:10:29;;;;;;;;;;;16.90;60.10;;;;;;4937532;28;20481;-70
2022/11/21 11:16:03;;;;;;;;;;;16.80;60.60;;;;;;4938212;28;20041;-69
2022/11/21 11:18:30;;;;;;;;;;;16.80;60.40;;;;;;4938593;28;19910;-69
2022/11/21 11:21:18;;;;;;;;;;;16.80;60.60;;;;;;4935798;28;19933;-70
2022/11/21 11:23:45;;;;;;;;;;;16.80;60.70;;;;;;4936014;28;19922;-69
2022/11/21 11:26:20;;;;;;;;;;;16.80;60.60;;;;;;4937838;28;19911;-68
2022/11/21 11:28:47;;;;;;;;;;;16.80;60.90;;;;;;4940449;28;19934;-69
2022/11/21 11:31:13;;;;;;;;;;;16.80;61.00;;;;;;4939690;28;19918;-70
2022/11/21 11:33:41;;;;;;;;;;;16.70;61.20;;;;;;4941270;28;19911;-67
2022/11/21 11:36:26;;;;;;;;;;;16.70;61.10;;;;;;4940448;28;19956;-71
2022/11/21 11:38:55;;;;;;;;;;;16.70;61.40;;;;;;4940046;28;19910;-70
2022/11/21 11:41:24;;;;;;;;;;;16.60;61.50;;;;;;4941248;28;19914;-71
2022/11/21 11:50:18;;;;;;;;;;;16.70;62.10;;;;;;4933746;28;20022;-70
2022/11/21 11:52:21;;;;;;;;;;;16.70;62.10;;;;;;4946254;28;19927;-70
2022/11/21 11:54:54;;;;;;;;;;;16.70;62.50;;;;;;4940114;28;20359;-70
2022/11/21 11:57:21;;;;;;;;;;;16.70;62.80;;;;;;4940230;28;19915;-71
2022/11/21 11:59:50;;;;;;;;;;;16.60;63.20;;;;;;4939783;28;19964;-70
2022/11/21 12:02:22;;;;;;;;;;;16.50;63.60;;;;;;4939439;28;20167;-69
2022/11/21 12:04:59;;;;;;;;;;;16.50;64.00;;;;;;4940053;28;19911;-70
2022/11/21 12:07:32;;;;;;;;;;;16.40;64.20;;;;;;4939968;28;19915;-69
2022/11/21 12:09:59;;;;;;;;;;;16.30;64.80;;;;;;4939279;28;19919;-72
2022/11/21 12:12:39;;;;;;;;;;;16.10;65.40;;;;;;4940680;28;20330;-69
2022/11/21 12:18:15;;;;;;;;;;;16.00;66.50;;;;;;4939258;28;19969;-70
2022/11/21 12:20:50;;;;;;;;;;;15.80;66.80;;;;;;4940768;28;19922;-71
2022/11/21 12:23:17;;;;;;;;;;;15.70;67.20;;;;;;4939532;28;19921;-71
2022/11/21 12:25:59;;;;;;;;;;;15.60;67.30;;;;;;4939657;28;20378;-71
2022/11/21 12:28:33;;;;;;;;;;;15.70;67.30;;;;;;4939390;28;19922;-71
2022/11/21 12:31:13;;;;;;;;;;;15.60;67.40;;;;;;4922576;28;19917;-69
2022/11/21 12:33:50;;;;;;;;;;;15.60;67.10;;;;;;4940874;28;19910;-69
2022/11/21 12:36:37;;;;;;;;;;;15.60;67.00;;;;;;4922123;28;20000;-72
2022/11/21 12:39:16;;;;;;;;;;;15.50;66.80;;;;;;4938838;28;20409;-71
2022/11/21 12:44:56;;;;;;;;;;;15.50;67.00;;;;;;4939849;28;20013;-69
2022/11/21 12:56:12;;;;;;;;;;;15.30;68.00;;;;;;4939344;28;20016;-70
2022/11/21 12:58:43;;;;;;;;;;;15.20;68.30;;;;;;4939934;28;20493;-70
2022/11/21 13:01:20;;;;;;;;;;;15.00;68.80;;;;;;4937616;28;19941;-71
2022/11/21 13:03:49;;;;;;;;;;;15.10;69.20;;;;;;4940501;28;20363;-71
2022/11/21 13:06:22;;;;;;;;;;;15.00;69.90;;;;;;4938826;28;20429;-69
2022/11/21 13:08:50;;;;;;;;;;;15.00;69.60;;;;;;4939771;28;19920;-71
2022/11/21 13:14:20;;;;;;;;;;;14.90;70.10;;;;;;4939295;28;20015;-69
2022/11/21 13:16:53;;;;;;;;;;;14.80;69.80;;;;;;4939160;28;19961;-70
2022/11/21 13:19:25;;;;;;;;;;;14.80;70.30;;;;;;4938684;28;20356;-70
2022/11/21 13:21:55;;;;;;;;;;;14.70;70.40;;;;;;4939658;28;19953;-73
2022/11/21 13:24:40;;;;;;;;;;;14.70;70.50;;;;;;4939152;28;19906;-70
2022/11/21 13:27:07;;;;;;;;;;;14.60;70.80;;;;;;4938795;28;19914;-71
2022/11/21 13:29:33;;;;;;;;;;;14.60;71.00;;;;;;4938538;28;19984;-70
2022/11/21 13:32:20;;;;;;;;;;;14.60;71.20;;;;;;4938205;28;19914;-70
2022/11/21 13:34:46;;;;;;;;;;;14.70;71.70;;;;;;4938936;28;19914;-75
2022/11/21 13:37:33;;;;;;;;;;;14.60;71.40;;;;;;4938085;28;19918;-75
2022/11/21 13:40:17;;;;;;;;;;;14.60;71.50;;;;;;4920926;28;19911;-73
2022/11/21 13:43:02;;;;;;;;;;;14.60;71.90;;;;;;4940284;28;19910;-70
2022/11/21 13:45:42;;;;;;;;;;;14.50;72.10;;;;;;4938853;28;19915;-72
2022/11/21 13:48:19;;;;;;;;;;;14.50;72.40;;;;;;4936609;28;20383;-75
2022/11/21 13:51:04;;;;;;;;;;;14.40;72.70;;;;;;4939269;28;20017;-71
2022/11/21 13:53:39;;;;;;;;;;;14.40;73.00;;;;;;4938636;28;19922;-70
2022/11/21 13:56:10;;;;;;;;;;;14.30;73.20;;;;;;4937679;28;19910;-69
2022/11/21 13:58:46;;;;;;;;;;;14.20;73.20;;;;;;4938855;28;20017;-69
2022/11/21 14:01:31;;;;;;;;;;;14.20;73.30;;;;;;4937805;28;20001;-70
2022/11/21 14:04:15;;;;;;;;;;;14.20;73.40;;;;;;4939701;28;19911;-71
2022/11/21 14:06:42;;;;;;;;;;;14.10;73.80;;;;;;4938153;28;20399;-70
2022/11/21 14:09:12;;;;;;;;;;;14.10;74.10;;;;;;4937118;28;19923;-70
2022/11/21 14:11:47;;;;;;;;;;;14.00;74.40;;;;;;4938599;28;19972;-74
2022/11/21 14:14:24;;;;;;;;;;;14.10;74.70;;;;;;4937662;28;19917;-70
2022/11/21 14:16:56;;;;;;;;;;;14.00;74.50;;;;;;4939228;28;19914;-73
2022/11/21 14:19:24;;;;;;;;;;;14.00;74.40;;;;;;4936263;28;19965;-71
2022/11/21 14:21:51;;;;;;;;;;;13.90;74.30;;;;;;4938845;28;20382;-72
2022/11/21 14:24:18;;;;;;;;;;;13.90;74.40;;;;;;4937769;28;19914;-68
2022/11/21 14:26:47;;;;;;;;;;;13.90;74.70;;;;;;4939109;28;19933;-70
2022/11/21 14:29:26;;;;;;;;;;;13.90;74.50;;;;;;4937120;28;19923;-71
2022/11/21 14:31:54;;;;;;;;;;;13.80;74.50;;;;;;4938916;28;20628;-71
2022/11/21 14:34:25;;;;;;;;;;;13.80;74.60;;;;;;4936363;28;19922;-72
2022/11/21 14:36:52;;;;;;;;;;;13.80;73.80;;;;;;4939107;28;19989;-72
2022/11/21 14:39:20;;;;;;;;;;;13.80;74.00;;;;;;4936769;28;19910;-71
2022/11/21 14:41:58;;;;;;;;;;;13.80;73.50;;;;;;4939132;28;19914;-70
2022/11/21 14:44:24;;;;;;;;;;;13.80;72.60;;;;;;4936299;28;19910;-71
2022/11/21 14:47:02;;;;;;;;;;;13.80;72.30;;;;;;4938583;28;19915;-71
2022/11/21 14:49:29;;;;;;;;;;;13.90;72.90;;;;;;4935831;28;19926;-68
2022/11/21 14:52:07;;;;;;;;;;;13.80;72.90;;;;;;4939153;28;19949;-68
2022/11/21 14:54:39;;;;;;;;;;;13.80;73.00;;;;;;4938006;28;19954;-68
2022/11/21 14:57:07;;;;;;;;;;;13.80;73.40;;;;;;4938064;28;19940;-69
2022/11/21 14:59:43;;;;;;;;;;;13.80;73.50;;;;;;4943751;28;19965;-69
2022/11/21 15:02:14;;;;;;;;;;;13.80;74.00;;;;;;4957850;28;19911;-69
2022/11/21 15:04:41;;;;;;;;;;;13.70;74.20;;;;;;4957274;28;19917;-69
2022/11/21 15:07:27;;;;;;;;;;;13.70;74.30;;;;;;4948777;28;19914;-69
2022/11/21 15:09:54;;;;;;;;;;;13.70;74.30;;;;;;4938306;28;19964;-69
2022/11/21 15:12:28;;;;;;;;;;;13.60;74.00;;;;;;4936732;28;19914;-69
2022/11/21 15:15:06;;;;;;;;;;;13.60;74.00;;;;;;4938517;28;19946;-70